sensor_id;sensor_type;location;lat;lon;timestamp;pressure;altitude;pressure_sealevel;temperature;humidity
62524;BME280;53689;56.878;60.672;2023-04-01T00:01:31;98753.28;;;22.50;22.10
62524;BME280;53689;56.878;60.672;2023-04-01T00:03:58;98748.69;;;22.51;21.96
62524;BME280;53689;56.878;60.672;2023-04-01T00:06:27;98749.25;;;22.46;22.26
62524;BME280;53689;56.878;60.672;2023-04-01T00:08:55;98740.34;;;22.45;22.43
62524;BME280;53689;56.878;60.672;2023-04-01T00:11:22;98738.00;;;22.42;22.81
62524;BME280;53689;56.878;60.672;2023-04-01T00:13:49;98757.09;;;22.41;22.64
62524;BME280;53689;56.878;60.672;2023-04-01T00:16:16;98756.53;;;22.45;22.79
62524;BME280;53689;56.878;60.672;2023-04-01T00:18:49;98743.59;;;22.41;22.43
62524;BME280;53689;56.878;60.672;2023-04-01T00:21:16;98733.47;;;22.43;22.54
62524;BME280;53689;56.878;60.672;2023-04-01T00:23:45;98732.38;;;22.37;22.12
62524;BME280;53689;56.878;60.672;2023-04-01T00:26:12;98722.78;;;22.35;22.45
62524;BME280;53689;56.878;60.672;2023-04-01T00:28:39;98714.13;;;22.39;22.60
62524;BME280;53689;56.878;60.672;2023-04-01T00:31:07;98728.91;;;22.43;22.65
62524;BME280;53689;56.878;60.672;2023-04-01T00:33:34;98723.50;;;22.43;22.85
62524;BME280;53689;56.878;60.672;2023-04-01T00:36:09;98711.41;;;22.39;22.43
62524;BME280;53689;56.878;60.672;2023-04-01T00:38:36;98711.69;;;22.44;22.75
62524;BME280;53689;56.878;60.672;2023-04-01T00:41:05;98718.94;;;22.44;22.78
62524;BME280;53689;56.878;60.672;2023-04-01T00:43:33;98708.72;;;22.39;22.94
62524;BME280;53689;56.878;60.672;2023-04-01T00:46:01;98718.69;;;22.39;22.90
62524;BME280;53689;56.878;60.672;2023-04-01T00:48:29;98727.44;;;22.41;23.16
62524;BME280;53689;56.878;60.672;2023-04-01T00:50:58;98727.66;;;22.46;22.90
62524;BME280;53689;56.878;60.672;2023-04-01T00:53:26;98734.09;;;22.45;23.32
62524;BME280;53689;56.878;60.672;2023-04-01T00:55:55;98746.00;;;22.51;22.81
62524;BME280;53689;56.878;60.672;2023-04-01T00:58:25;98741.81;;;22.48;23.06
62524;BME280;53689;56.878;60.672;2023-04-01T01:00:54;98746.47;;;22.54;23.16
62524;BME280;53689;56.878;60.672;2023-04-01T01:03:22;98749.56;;;22.51;23.65
62524;BME280;53689;56.878;60.672;2023-04-01T01:05:54;98740.91;;;22.41;23.18
62524;BME280;53689;56.878;60.672;2023-04-01T01:08:25;98748.91;;;22.49;23.19
62524;BME280;53689;56.878;60.672;2023-04-01T01:10:56;98725.63;;;22.48;23.17
62524;BME280;53689;56.878;60.672;2023-04-01T01:13:25;98730.31;;;22.39;23.22
62524;BME280;53689;56.878;60.672;2023-04-01T01:15:58;98726.06;;;22.30;23.82
62524;BME280;53689;56.878;60.672;2023-04-01T01:18:27;98715.16;;;22.38;23.34
62524;BME280;53689;56.878;60.672;2023-04-01T01:23:51;98711.28;;;22.48;23.12
62524;BME280;53689;56.878;60.672;2023-04-01T01:26:46;98718.84;;;22.52;23.16
62524;BME280;53689;56.878;60.672;2023-04-01T01:29:26;98712.59;;;22.52;23.24
62524;BME280;53689;56.878;60.672;2023-04-01T01:31:57;98717.19;;;22.51;22.86
62524;BME280;53689;56.878;60.672;2023-04-01T01:34:30;98715.50;;;22.50;22.88
62524;BME280;53689;56.878;60.672;2023-04-01T01:37:03;98712.81;;;22.50;22.91
62524;BME280;53689;56.878;60.672;2023-04-01T01:39:32;98710.94;;;22.51;22.76
62524;BME280;53689;56.878;60.672;2023-04-01T01:42:02;98710.25;;;22.49;22.69
62524;BME280;53689;56.878;60.672;2023-04-01T01:44:31;98717.53;;;22.48;22.83
62524;BME280;53689;56.878;60.672;2023-04-01T01:46:59;98716.25;;;22.44;23.27
62524;BME280;53689;56.878;60.672;2023-04-01T01:49:27;98709.09;;;22.51;22.49
62524;BME280;53689;56.878;60.672;2023-04-01T01:51:54;98714.09;;;22.54;22.71
62524;BME280;53689;56.878;60.672;2023-04-01T01:54:24;98708.06;;;22.52;22.97
62524;BME280;53689;56.878;60.672;2023-04-01T01:56:52;98705.34;;;22.52;22.95
62524;BME280;53689;56.878;60.672;2023-04-01T01:59:23;98707.66;;;22.55;22.38
62524;BME280;53689;56.878;60.672;2023-04-01T02:01:52;98711.19;;;22.56;22.46
62524;BME280;53689;56.878;60.672;2023-04-01T02:04:22;98724.88;;;22.54;22.84
62524;BME280;53689;56.878;60.672;2023-04-01T02:06:51;98728.03;;;22.58;22.65
62524;BME280;53689;56.878;60.672;2023-04-01T02:09:21;98719.28;;;22.56;22.47
62524;BME280;53689;56.878;60.672;2023-04-01T02:11:51;98718.09;;;22.58;22.77
62524;BME280;53689;56.878;60.672;2023-04-01T02:14:20;98714.53;;;22.58;22.51
62524;BME280;53689;56.878;60.672;2023-04-01T02:16:50;98720.38;;;22.62;22.05
62524;BME280;53689;56.878;60.672;2023-04-01T02:19:18;98706.03;;;22.61;22.66
62524;BME280;53689;56.878;60.672;2023-04-01T02:21:49;98708.94;;;22.59;22.72
62524;BME280;53689;56.878;60.672;2023-04-01T02:24:18;98720.56;;;22.60;22.56
62524;BME280;53689;56.878;60.672;2023-04-01T02:26:46;98717.88;;;22.60;22.24
62524;BME280;53689;56.878;60.672;2023-04-01T02:29:15;98723.09;;;22.62;22.77
62524;BME280;53689;56.878;60.672;2023-04-01T02:31:45;98696.50;;;22.58;22.32
62524;BME280;53689;56.878;60.672;2023-04-01T02:34:13;98710.63;;;22.61;22.73
62524;BME280;53689;56.878;60.672;2023-04-01T02:36:40;98712.91;;;22.64;22.69
62524;BME280;53689;56.878;60.672;2023-04-01T02:39:08;98709.59;;;22.62;22.63
62524;BME280;53689;56.878;60.672;2023-04-01T02:41:38;98707.66;;;22.55;22.84
62524;BME280;53689;56.878;60.672;2023-04-01T02:44:05;98717.03;;;22.59;22.64
62524;BME280;53689;56.878;60.672;2023-04-01T02:46:35;98721.41;;;22.61;22.37
62524;BME280;53689;56.878;60.672;2023-04-01T02:49:03;98710.63;;;22.61;22.85
62524;BME280;53689;56.878;60.672;2023-04-01T02:51:31;98694.81;;;22.57;22.55
62524;BME280;53689;56.878;60.672;2023-04-01T02:53:59;98701.88;;;22.58;22.46
62524;BME280;53689;56.878;60.672;2023-04-01T02:56:26;98694.19;;;22.40;22.81
62524;BME280;53689;56.878;60.672;2023-04-01T02:58:53;98695.59;;;22.51;23.02
62524;BME280;53689;56.878;60.672;2023-04-01T03:01:21;98704.13;;;22.55;22.67
62524;BME280;53689;56.878;60.672;2023-04-01T03:03:49;98692.50;;;22.54;22.42
62524;BME280;53689;56.878;60.672;2023-04-01T03:06:17;98686.28;;;22.54;22.48
62524;BME280;53689;56.878;60.672;2023-04-01T03:08:44;98694.16;;;22.55;22.71
62524;BME280;53689;56.878;60.672;2023-04-01T03:11:12;98690.44;;;22.56;22.29
62524;BME280;53689;56.878;60.672;2023-04-01T03:13:40;98693.13;;;22.56;22.86
62524;BME280;53689;56.878;60.672;2023-04-01T03:16:08;98696.28;;;22.60;22.91
62524;BME280;53689;56.878;60.672;2023-04-01T03:18:35;98684.53;;;21.87;23.72
62524;BME280;53689;56.878;60.672;2023-04-01T03:21:13;98698.91;;;22.31;23.30
62524;BME280;53689;56.878;60.672;2023-04-01T03:23:40;98693.63;;;22.45;22.92
62524;BME280;53689;56.878;60.672;2023-04-01T03:26:08;98696.22;;;22.53;22.82
62524;BME280;53689;56.878;60.672;2023-04-01T03:28:35;98695.81;;;22.56;22.64
62524;BME280;53689;56.878;60.672;2023-04-01T03:31:02;98689.03;;;22.61;22.50
62524;BME280;53689;56.878;60.672;2023-04-01T03:33:36;98699.81;;;22.61;22.42
62524;BME280;53689;56.878;60.672;2023-04-01T03:36:03;98693.56;;;22.60;22.25
62524;BME280;53689;56.878;60.672;2023-04-01T03:38:32;98706.88;;;22.62;22.44
62524;BME280;53689;56.878;60.672;2023-04-01T03:41:00;98710.63;;;22.61;22.41
62524;BME280;53689;56.878;60.672;2023-04-01T03:43:27;98706.50;;;22.65;22.89
62524;BME280;53689;56.878;60.672;2023-04-01T03:45:55;98704.81;;;22.64;22.58
62524;BME280;53689;56.878;60.672;2023-04-01T03:48:23;98689.03;;;22.61;22.58
62524;BME280;53689;56.878;60.672;2023-04-01T03:50:50;98684.81;;;22.51;22.85
62524;BME280;53689;56.878;60.672;2023-04-01T03:53:17;98669.09;;;22.62;22.80
62524;BME280;53689;56.878;60.672;2023-04-01T03:55:47;98667.03;;;22.64;22.90
62524;BME280;53689;56.878;60.672;2023-04-01T03:58:14;98673.91;;;22.66;22.84
62524;BME280;53689;56.878;60.672;2023-04-01T04:00:41;98671.22;;;22.66;22.91
62524;BME280;53689;56.878;60.672;2023-04-01T04:03:09;98670.00;;;22.69;22.77
62524;BME280;53689;56.878;60.672;2023-04-01T04:05:37;98664.78;;;22.67;22.25
62524;BME280;53689;56.878;60.672;2023-04-01T04:08:04;98666.66;;;22.67;22.25
62524;BME280;53689;56.878;60.672;2023-04-01T04:10:32;98671.03;;;22.68;22.65
62524;BME280;53689;56.878;60.672;2023-04-01T04:13:01;98664.97;;;22.66;22.62
62524;BME280;53689;56.878;60.672;2023-04-01T04:15:30;98655.84;;;22.67;22.33
62524;BME280;53689;56.878;60.672;2023-04-01T04:17:57;98652.16;;;22.68;22.31
62524;BME280;53689;56.878;60.672;2023-04-01T04:20:25;98658.19;;;22.70;22.36
62524;BME280;53689;56.878;60.672;2023-04-01T04:22:52;98661.25;;;22.67;22.50
62524;BME280;53689;56.878;60.672;2023-04-01T04:25:20;98656.50;;;22.69;22.73
62524;BME280;53689;56.878;60.672;2023-04-01T04:27:47;98660.25;;;22.68;22.61
62524;BME280;53689;56.878;60.672;2023-04-01T04:30:16;98652.16;;;22.68;22.70
62524;BME280;53689;56.878;60.672;2023-04-01T04:32:44;98660.44;;;22.66;22.49
62524;BME280;53689;56.878;60.672;2023-04-01T04:35:11;98649.22;;;22.69;22.31
62524;BME280;53689;56.878;60.672;2023-04-01T04:37:39;98641.75;;;22.71;22.58
62524;BME280;53689;56.878;60.672;2023-04-01T04:40:07;98635.94;;;22.68;22.58
62524;BME280;53689;56.878;60.672;2023-04-01T04:42:35;98644.69;;;22.70;22.77
62524;BME280;53689;56.878;60.672;2023-04-01T04:45:08;98651.75;;;22.71;22.42
62524;BME280;53689;56.878;60.672;2023-04-01T04:47:40;98647.16;;;22.71;22.36
62524;BME280;53689;56.878;60.672;2023-04-01T04:50:08;98630.97;;;22.71;22.35
62524;BME280;53689;56.878;60.672;2023-04-01T04:52:37;98634.25;;;22.67;22.57
62524;BME280;53689;56.878;60.672;2023-04-01T04:55:05;98639.28;;;22.70;22.49
62524;BME280;53689;56.878;60.672;2023-04-01T04:57:32;98642.63;;;22.72;22.42
62524;BME280;53689;56.878;60.672;2023-04-01T04:59:59;98651.56;;;22.72;22.57
62524;BME280;53689;56.878;60.672;2023-04-01T05:02:42;98649.03;;;22.71;22.44
62524;BME280;53689;56.878;60.672;2023-04-01T05:05:09;98640.94;;;22.71;22.57
62524;BME280;53689;56.878;60.672;2023-04-01T05:07:36;98648.00;;;22.72;22.81
62524;BME280;53689;56.878;60.672;2023-04-01T05:10:04;98638.88;;;22.73;22.53
62524;BME280;53689;56.878;60.672;2023-04-01T05:12:32;98628.94;;;22.73;22.65
62524;BME280;53689;56.878;60.672;2023-04-01T05:15:01;98632.44;;;22.74;22.85
62524;BME280;53689;56.878;60.672;2023-04-01T05:17:29;98638.88;;;22.73;22.72
62524;BME280;53689;56.878;60.672;2023-04-01T05:19:58;98649.28;;;22.76;22.45
62524;BME280;53689;56.878;60.672;2023-04-01T05:22:25;98639.50;;;22.75;22.43
62524;BME280;53689;56.878;60.672;2023-04-01T05:24:52;98624.97;;;22.76;22.81
62524;BME280;53689;56.878;60.672;2023-04-01T05:27:20;98623.53;;;22.73;22.36
62524;BME280;53689;56.878;60.672;2023-04-01T05:29:47;98606.31;;;22.75;22.40
62524;BME280;53689;56.878;60.672;2023-04-01T05:32:42;98602.75;;;22.74;22.73
62524;BME280;53689;56.878;60.672;2023-04-01T05:35:11;98612.75;;;22.73;22.72
62524;BME280;53689;56.878;60.672;2023-04-01T05:37:38;98607.13;;;22.75;22.40
62524;BME280;53689;56.878;60.672;2023-04-01T05:40:07;98594.66;;;22.74;22.22
62524;BME280;53689;56.878;60.672;2023-04-01T05:42:34;98588.22;;;22.75;22.65
62524;BME280;53689;56.878;60.672;2023-04-01T05:45:04;98578.28;;;22.76;22.07
62524;BME280;53689;56.878;60.672;2023-04-01T05:48:06;98571.84;;;22.77;22.80
62524;BME280;53689;56.878;60.672;2023-04-01T05:50:41;98570.00;;;22.77;22.30
62524;BME280;53689;56.878;60.672;2023-04-01T05:53:09;98559.97;;;22.71;22.57
62524;BME280;53689;56.878;60.672;2023-04-01T05:55:39;98572.88;;;22.76;22.68
62524;BME280;53689;56.878;60.672;2023-04-01T05:58:06;98568.97;;;22.78;22.21
62524;BME280;53689;56.878;60.672;2023-04-01T06:00:36;98568.75;;;22.80;22.25
62524;BME280;53689;56.878;60.672;2023-04-01T06:03:03;98562.72;;;22.78;22.67
62524;BME280;53689;56.878;60.672;2023-04-01T06:05:35;98549.22;;;22.78;22.46
62524;BME280;53689;56.878;60.672;2023-04-01T06:08:09;98551.09;;;22.77;22.62
62524;BME280;53689;56.878;60.672;2023-04-01T06:10:39;98547.13;;;22.73;22.57
62524;BME280;53689;56.878;60.672;2023-04-01T06:13:10;98553.13;;;22.75;22.56
62524;BME280;53689;56.878;60.672;2023-04-01T06:15:47;98558.16;;;22.78;22.54
62524;BME280;53689;56.878;60.672;2023-04-01T06:18:33;98565.84;;;22.81;22.47
62524;BME280;53689;56.878;60.672;2023-04-01T06:21:06;98567.50;;;22.82;22.48
62524;BME280;53689;56.878;60.672;2023-04-01T06:23:54;98572.91;;;22.82;22.52
62524;BME280;53689;56.878;60.672;2023-04-01T06:26:29;98565.66;;;22.83;22.33
62524;BME280;53689;56.878;60.672;2023-04-01T06:29:18;98553.19;;;22.82;22.41
62524;BME280;53689;56.878;60.672;2023-04-01T06:31:57;98554.22;;;22.81;22.28
62524;BME280;53689;56.878;60.672;2023-04-01T06:37:25;98543.84;;;22.84;22.59
62524;BME280;53689;56.878;60.672;2023-04-01T06:40:04;98538.44;;;22.84;22.54
62524;BME280;53689;56.878;60.672;2023-04-01T06:42:42;98537.25;;;22.01;23.80
62524;BME280;53689;56.878;60.672;2023-04-01T06:45:35;98545.97;;;21.67;24.25
62524;BME280;53689;56.878;60.672;2023-04-01T06:48:30;98544.88;;;21.39;24.25
62524;BME280;53689;56.878;60.672;2023-04-01T06:51:27;98534.53;;;22.01;23.46
62524;BME280;53689;56.878;60.672;2023-04-01T06:54:17;98515.34;;;22.40;23.03
62524;BME280;53689;56.878;60.672;2023-04-01T06:57:21;98530.16;;;22.51;22.74
62524;BME280;53689;56.878;60.672;2023-04-01T06:59:50;98518.81;;;22.62;22.91
62524;BME280;53689;56.878;60.672;2023-04-01T07:02:20;98517.22;;;22.68;23.03
62524;BME280;53689;56.878;60.672;2023-04-01T07:04:49;98515.13;;;22.70;22.83
62524;BME280;53689;56.878;60.672;2023-04-01T07:07:19;98524.50;;;22.74;22.56
62524;BME280;53689;56.878;60.672;2023-04-01T07:09:56;98524.50;;;22.74;22.93
62524;BME280;53689;56.878;60.672;2023-04-01T07:12:35;98520.38;;;22.78;22.42
62524;BME280;53689;56.878;60.672;2023-04-01T07:15:24;98518.06;;;22.75;22.74
62524;BME280;53689;56.878;60.672;2023-04-01T07:17:53;98506.88;;;22.78;22.75
62524;BME280;53689;56.878;60.672;2023-04-01T07:20:22;98516.63;;;22.79;22.40
62524;BME280;53689;56.878;60.672;2023-04-01T07:22:52;98514.38;;;22.83;22.65
62524;BME280;53689;56.878;60.672;2023-04-01T07:25:33;98522.47;;;22.83;22.89
62524;BME280;53689;56.878;60.672;2023-04-01T07:28:22;98515.59;;;22.80;22.06
62524;BME280;53689;56.878;60.672;2023-04-01T07:31:00;98506.06;;;22.84;22.70
62524;BME280;53689;56.878;60.672;2023-04-01T07:33:33;98506.91;;;22.85;21.74
62524;BME280;53689;56.878;60.672;2023-04-01T07:36:06;98506.13;;;22.91;22.56
62524;BME280;53689;56.878;60.672;2023-04-01T07:38:37;98505.28;;;22.91;22.27
62524;BME280;53689;56.878;60.672;2023-04-01T07:41:10;98513.63;;;22.96;21.73
62524;BME280;53689;56.878;60.672;2023-04-01T07:43:51;98509.63;;;22.92;22.17
62524;BME280;53689;56.878;60.672;2023-04-01T07:46:38;98503.59;;;22.90;21.88
62524;BME280;53689;56.878;60.672;2023-04-01T07:49:11;98494.47;;;22.91;22.18
62524;BME280;53689;56.878;60.672;2023-04-01T07:51:42;98491.97;;;22.89;22.77
62524;BME280;53689;56.878;60.672;2023-04-01T07:54:14;98481.59;;;22.93;22.56
62524;BME280;53689;56.878;60.672;2023-04-01T07:56:45;98488.22;;;22.90;22.10
62524;BME280;53689;56.878;60.672;2023-04-01T07:59:21;98489.06;;;22.91;22.05
62524;BME280;53689;56.878;60.672;2023-04-01T08:02:00;98496.53;;;22.89;22.14
62524;BME280;53689;56.878;60.672;2023-04-01T08:04:35;98495.50;;;22.90;22.52
62524;BME280;53689;56.878;60.672;2023-04-01T08:07:10;98482.00;;;22.90;22.46
62524;BME280;53689;56.878;60.672;2023-04-01T08:09:52;98488.03;;;22.92;22.51
62524;BME280;53689;56.878;60.672;2023-04-01T08:12:51;98487.00;;;22.93;22.09
62524;BME280;53689;56.878;60.672;2023-04-01T08:15:43;98480.56;;;22.94;22.84
62524;BME280;53689;56.878;60.672;2023-04-01T08:18:26;98465.41;;;22.93;23.63
62524;BME280;53689;56.878;60.672;2023-04-01T08:20:58;98475.38;;;22.92;23.24
62524;BME280;53689;56.878;60.672;2023-04-01T08:23:27;98465.41;;;22.93;23.03
62524;BME280;53689;56.878;60.672;2023-04-01T08:25:56;98465.41;;;22.93;22.49
62524;BME280;53689;56.878;60.672;2023-04-01T08:28:29;98451.69;;;22.94;22.70
62524;BME280;53689;56.878;60.672;2023-04-01T08:31:01;98447.34;;;22.93;22.58
62524;BME280;53689;56.878;60.672;2023-04-01T08:33:31;98443.59;;;22.94;22.67
62524;BME280;53689;56.878;60.672;2023-04-01T08:36:07;98430.91;;;22.95;22.63
62524;BME280;53689;56.878;60.672;2023-04-01T08:38:38;98427.59;;;22.93;22.80
62524;BME280;53689;56.878;60.672;2023-04-01T08:41:12;98420.13;;;22.95;22.70
62524;BME280;53689;56.878;60.672;2023-04-01T08:52:47;98417.22;;;22.96;22.06
62524;BME280;53689;56.878;60.672;2023-04-01T08:55:28;98419.13;;;22.96;22.30
62524;BME280;53689;56.878;60.672;2023-04-01T09:01:35;98399.19;;;22.97;22.57
62524;BME280;53689;56.878;60.672;2023-04-01T09:07:06;98399.78;;;22.99;21.71
62524;BME280;53689;56.878;60.672;2023-04-01T09:10:04;98397.09;;;22.99;22.55
62524;BME280;53689;56.878;60.672;2023-04-01T09:24:05;98388.38;;;23.04;22.21
62524;BME280;53689;56.878;60.672;2023-04-01T09:26:52;98403.13;;;23.08;21.78
62524;BME280;53689;56.878;60.672;2023-04-01T09:32:14;98390.28;;;23.10;22.02
62524;BME280;53689;56.878;60.672;2023-04-01T09:35:10;98392.13;;;23.09;21.60
62524;BME280;53689;56.878;60.672;2023-04-01T09:37:50;98386.53;;;23.11;22.13
62524;BME280;53689;56.878;60.672;2023-04-01T09:40:24;98392.13;;;23.09;21.99
62524;BME280;53689;56.878;60.672;2023-04-01T09:43:04;98382.19;;;23.10;21.98
62524;BME280;53689;56.878;60.672;2023-04-01T09:45:40;98378.03;;;23.14;21.57
62524;BME280;53689;56.878;60.672;2023-04-01T09:48:14;98382.19;;;23.17;21.98
62524;BME280;53689;56.878;60.672;2023-04-01T09:50:46;98376.97;;;23.15;22.23
62524;BME280;53689;56.878;60.672;2023-04-01T09:53:17;98370.75;;;23.14;21.67
62524;BME280;53689;56.878;60.672;2023-04-01T10:13:03;98349.97;;;23.22;21.85
62524;BME280;53689;56.878;60.672;2023-04-01T10:24:02;98339.19;;;23.28;21.09
62524;BME280;53689;56.878;60.672;2023-04-01T10:29:57;98319.47;;;23.28;21.58
62524;BME280;53689;56.878;60.672;2023-04-01T10:35:23;98310.75;;;23.33;21.19
62524;BME280;53689;56.878;60.672;2023-04-01T10:40:49;98308.03;;;23.39;21.59
62524;BME280;53689;56.878;60.672;2023-04-01T10:49:13;98313.66;;;23.31;21.61
62524;BME280;53689;56.878;60.672;2023-04-01T10:52:07;98316.97;;;23.47;20.96
62524;BME280;53689;56.878;60.672;2023-04-01T10:55:01;98322.78;;;23.50;21.05
62524;BME280;53689;56.878;60.672;2023-04-01T10:58:03;98329.03;;;23.44;20.51
62524;BME280;53689;56.878;60.672;2023-04-01T11:01:21;98329.88;;;23.45;20.85
62524;BME280;53689;56.878;60.672;2023-04-01T11:07:41;98314.47;;;23.52;21.11
62524;BME280;53689;56.878;60.672;2023-04-01T11:24:53;98299.31;;;23.58;21.29
62524;BME280;53689;56.878;60.672;2023-04-01T11:27:53;98297.22;;;23.60;20.24
62524;BME280;53689;56.878;60.672;2023-04-01T11:30:29;98308.22;;;23.58;19.96
62524;BME280;53689;56.878;60.672;2023-04-01T11:33:01;98289.94;;;23.53;20.30
62524;BME280;53689;56.878;60.672;2023-04-01T11:35:38;98284.94;;;23.57;19.96
62524;BME280;53689;56.878;60.672;2023-04-01T11:38:18;98295.53;;;23.52;20.20
62524;BME280;53689;56.878;60.672;2023-04-01T11:40:51;98300.94;;;23.52;20.92
62524;BME280;53689;56.878;60.672;2023-04-01T11:43:24;98304.50;;;23.46;21.07
62524;BME280;53689;56.878;60.672;2023-04-01T11:46:30;98300.94;;;23.52;21.14
62524;BME280;53689;56.878;60.672;2023-04-01T11:49:02;98298.69;;;23.62;20.39
62524;BME280;53689;56.878;60.672;2023-04-01T11:51:51;98296.34;;;23.66;21.43
62524;BME280;53689;56.878;60.672;2023-04-01T11:54:28;98291.38;;;23.69;22.61
62524;BME280;53689;56.878;60.672;2023-04-01T11:57:06;98282.69;;;23.54;22.00
62524;BME280;53689;56.878;60.672;2023-04-01T11:59:45;98260.22;;;23.53;20.87
62524;BME280;53689;56.878;60.672;2023-04-01T12:02:15;98267.28;;;23.48;21.22
62524;BME280;53689;56.878;60.672;2023-04-01T12:04:52;98266.66;;;23.52;21.22
62524;BME280;53689;56.878;60.672;2023-04-01T12:07:23;98270.41;;;23.58;20.68
62524;BME280;53689;56.878;60.672;2023-04-01T12:09:53;98261.06;;;23.54;20.39
62524;BME280;53689;56.878;60.672;2023-04-01T12:12:27;98264.34;;;23.63;20.43
62524;BME280;53689;56.878;60.672;2023-04-01T12:15:00;98262.09;;;23.53;20.17
62524;BME280;53689;56.878;60.672;2023-04-01T12:17:32;98260.22;;;23.53;20.23
62524;BME280;53689;56.878;60.672;2023-04-01T12:20:20;98262.91;;;23.60;19.88
62524;BME280;53689;56.878;60.672;2023-04-01T12:22:50;98260.44;;;23.59;20.21
62524;BME280;53689;56.878;60.672;2023-04-01T12:25:23;98261.66;;;23.63;19.46
62524;BME280;53689;56.878;60.672;2023-04-01T12:27:56;98254.13;;;23.78;19.79
62524;BME280;53689;56.878;60.672;2023-04-01T12:30:28;98243.09;;;23.80;18.91
62524;BME280;53689;56.878;60.672;2023-04-01T12:33:01;98244.38;;;23.77;19.70
62524;BME280;53689;56.878;60.672;2023-04-01T12:35:32;98249.59;;;23.65;19.60
62524;BME280;53689;56.878;60.672;2023-04-01T12:38:07;98256.88;;;23.72;19.96
62524;BME280;53689;56.878;60.672;2023-04-01T12:40:45;98258.72;;;23.71;19.93
62524;BME280;53689;56.878;60.672;2023-04-01T12:43:25;98250.22;;;23.67;20.48
62524;BME280;53689;56.878;60.672;2023-04-01T12:45:57;98255.66;;;23.54;20.12
62524;BME280;53689;56.878;60.672;2023-04-01T12:48:39;98258.34;;;23.27;20.98
62524;BME280;53689;56.878;60.672;2023-04-01T12:54:05;98255.66;;;23.13;22.10
62524;BME280;53689;56.878;60.672;2023-04-01T12:56:39;98259.00;;;23.29;20.99
62524;BME280;53689;56.878;60.672;2023-04-01T13:02:02;98263.94;;;23.59;19.59
62524;BME280;53689;56.878;60.672;2023-04-01T13:04:45;98264.34;;;23.63;19.29
62524;BME280;53689;56.878;60.672;2023-04-01T13:07:33;98269.75;;;23.69;19.50
62524;BME280;53689;56.878;60.672;2023-04-01T13:10:06;98264.75;;;23.66;19.87
62524;BME280;53689;56.878;60.672;2023-04-01T13:12:36;98274.34;;;23.69;18.96
62524;BME280;53689;56.878;60.672;2023-04-01T13:15:14;98279.31;;;23.72;19.56
62524;BME280;53689;56.878;60.672;2023-04-01T13:17:47;98284.06;;;23.77;19.16
62524;BME280;53689;56.878;60.672;2023-04-01T13:20:19;98280.53;;;23.83;19.99
62524;BME280;53689;56.878;60.672;2023-04-01T13:22:52;98281.41;;;23.70;19.88
62524;BME280;53689;56.878;60.672;2023-04-01T13:25:26;98267.44;;;23.87;18.91
62524;BME280;53689;56.878;60.672;2023-04-01T13:28:00;98256.44;;;23.75;18.61
62524;BME280;53689;56.878;60.672;2023-04-01T13:30:30;98261.41;;;23.78;19.04
62524;BME280;53689;56.878;60.672;2023-04-01T13:33:04;98259.53;;;23.85;19.29
62524;BME280;53689;56.878;60.672;2023-04-01T13:35:38;98257.66;;;23.79;19.97
62524;BME280;53689;56.878;60.672;2023-04-01T13:38:13;98248.72;;;23.78;18.34
62524;BME280;53689;56.878;60.672;2023-04-01T13:40:47;98249.78;;;23.77;19.75
62524;BME280;53689;56.878;60.672;2023-04-01T13:43:30;98244.78;;;23.81;18.84
62524;BME280;53689;56.878;60.672;2023-04-01T13:46:22;98250.56;;;23.84;19.46
62524;BME280;53689;56.878;60.672;2023-04-01T13:49:10;98244.75;;;23.88;18.99
62524;BME280;53689;56.878;60.672;2023-04-01T13:51:50;98244.78;;;23.81;19.02
62524;BME280;53689;56.878;60.672;2023-04-01T13:54:24;98247.88;;;23.78;19.94
62524;BME280;53689;56.878;60.672;2023-04-01T13:56:57;98255.16;;;23.84;19.30
62524;BME280;53689;56.878;60.672;2023-04-01T13:59:39;98267.03;;;23.76;20.45
62524;BME280;53689;56.878;60.672;2023-04-01T14:05:03;98270.34;;;23.78;20.52
62524;BME280;53689;56.878;60.672;2023-04-01T14:07:44;98264.09;;;23.78;19.98
62524;BME280;53689;56.878;60.672;2023-04-01T14:10:18;98271.59;;;23.82;19.66
62524;BME280;53689;56.878;60.672;2023-04-01T14:12:47;98266.81;;;23.78;19.16
62524;BME280;53689;56.878;60.672;2023-04-01T14:15:22;98269.13;;;23.81;19.44
62524;BME280;53689;56.878;60.672;2023-04-01T14:18:01;98261.75;;;23.95;19.07
62524;BME280;53689;56.878;60.672;2023-04-01T14:20:39;98259.31;;;23.80;19.93
62524;BME280;53689;56.878;60.672;2023-04-01T14:26:01;98282.00;;;23.86;19.33
62524;BME280;53689;56.878;60.672;2023-04-01T14:28:31;98277.81;;;23.90;19.15
62524;BME280;53689;56.878;60.672;2023-04-01T14:31:15;98281.72;;;23.94;19.52
62524;BME280;53689;56.878;60.672;2023-04-01T14:33:48;98295.03;;;23.95;19.38
62524;BME280;53689;56.878;60.672;2023-04-01T14:36:31;98291.75;;;23.87;19.67
62524;BME280;53689;56.878;60.672;2023-04-01T14:39:07;98297.81;;;23.82;19.58
62524;BME280;53689;56.878;60.672;2023-04-01T14:41:41;98304.66;;;23.91;18.84
62524;BME280;53689;56.878;60.672;2023-04-01T14:49:50;98304.81;;;23.96;18.78
62524;BME280;53689;56.878;60.672;2023-04-01T14:52:24;98308.53;;;24.02;18.23
62524;BME280;53689;56.878;60.672;2023-04-01T14:54:52;98307.13;;;24.06;19.13
62524;BME280;53689;56.878;60.672;2023-04-01T14:57:22;98307.97;;;23.93;18.75
62524;BME280;53689;56.878;60.672;2023-04-01T14:59:51;98299.22;;;23.98;18.73
62524;BME280;53689;56.878;60.672;2023-04-01T15:02:27;98302.94;;;24.04;19.28
62524;BME280;53689;56.878;60.672;2023-04-01T15:05:02;98300.06;;;24.05;18.54
62524;BME280;53689;56.878;60.672;2023-04-01T15:10:24;98302.53;;;24.07;18.41
62524;BME280;53689;56.878;60.672;2023-04-01T15:12:58;98313.13;;;24.02;19.21
62524;BME280;53689;56.878;60.672;2023-04-01T15:15:32;98306.69;;;24.03;19.08
62524;BME280;53689;56.878;60.672;2023-04-01T15:18:07;98313.56;;;23.92;19.78